PWSweather.com
Personal Weather Stations
Station Observations
KTXDECATUR
Wildwood, Decatur, TX 76234

WildwoodDecatur, TX 76234

Lat: 33.2634, Lon: -97.6651

Elevation: 800

Station Type: Davis Vantage Pro 2

http://weather.wildwoodnaturist.com

Latest ConditionsUpdated 12:00:15 PM CDT Saturday, Apr 19, 2014
Currently Today's Max Today's Min Today's Average
Temperature 74.2°F23.4°C 74.2°F23.4°C 47.8°F8.8°C 57.8°F14.3°C
Dew Point 57.5°F14.2°C 58.8°F14.9°C 45.3°F7.4°C 50.6°F10.3°C
Winds 11.6 mph S18.7 kmh S 12.0 mph S19.3 kmh S - 3.1 mph 5.0 kmh
Wind Gusts 20.3 mph32.7 kmh 20.3 mph32.7 kmh - -
Humidity 56% 93% 56% 78%
Pressure 30.15 in1021.0 mb 30.18 in1022.0 mb 30.11 in1019.6 mb -
Hour Temp Dew Point Humidity Winds Wind Gusts Pressure Precip Precip Rate Daily Precip Total
12:00 PM 74.2°F23.4°C 57.5°F14.2°C 56% 11.6 mph S18.7 kmh S 20.3 mph32.7 kmh 30.15 in1021.0 mb 0.00 in0.0 mm 0.00 in/hr0.0 mm/hr 0.00 in0.0 mm
11:50 AM 74.0°F23.3°C 58.8°F14.9°C 59% 8.8 mph SE14.2 kmh SE 12.8 mph20.6 kmh 30.15 in1021.0 mb 0.00 in0.0 mm 0.00 in/hr0.0 mm/hr 0.00 in0.0 mm
11:40 AM 73.3°F22.9°C 57.6°F14.2°C 58% 8.5 mph SE13.7 kmh SE 9.6 mph15.4 kmh 30.16 in1021.3 mb 0.00 in0.0 mm 0.00 in/hr0.0 mm/hr 0.00 in0.0 mm
11:30 AM 72.4°F22.4°C 56.8°F13.8°C 58% 8.1 mph SE13.0 kmh SE 11.8 mph19.0 kmh 30.16 in1021.3 mb 0.00 in0.0 mm 0.00 in/hr0.0 mm/hr 0.00 in0.0 mm
11:20 AM 72.3°F22.4°C 57.2°F14.0°C 59% 9.5 mph SSW15.3 kmh SSW 12.8 mph20.6 kmh 30.16 in1021.3 mb 0.00 in0.0 mm 0.00 in/hr0.0 mm/hr 0.00 in0.0 mm
11:10 AM 72.2°F22.3°C 57.1°F13.9°C 59% 8.1 mph S13.0 kmh S 11.8 mph19.0 kmh 30.16 in1021.3 mb 0.00 in0.0 mm 0.00 in/hr0.0 mm/hr 0.00 in0.0 mm
11:00 AM 71.7°F22.1°C 57.1°F13.9°C 60% 11.9 mph SE19.2 kmh SE 17.1 mph27.5 kmh 30.17 in1021.7 mb 0.00 in0.0 mm 0.00 in/hr0.0 mm/hr 0.00 in0.0 mm
10:50 AM 71.1°F21.7°C 57.4°F14.1°C 62% 9.6 mph SE15.4 kmh SE 13.9 mph22.4 kmh 30.17 in1021.7 mb 0.00 in0.0 mm 0.00 in/hr0.0 mm/hr 0.00 in0.0 mm
10:40 AM 70.2°F21.2°C 57.0°F13.9°C 63% 7.1 mph S11.4 kmh S 7.5 mph12.1 kmh 30.17 in1021.7 mb 0.00 in0.0 mm 0.00 in/hr0.0 mm/hr 0.00 in0.0 mm
10:30 AM 69.6°F20.9°C 56.8°F13.8°C 64% 8.5 mph S13.7 kmh S 12.8 mph20.6 kmh 30.17 in1021.7 mb 0.00 in0.0 mm 0.00 in/hr0.0 mm/hr 0.00 in0.0 mm
10:20 AM 68.9°F20.5°C 57.0°F13.9°C 66% 11.5 mph SE18.5 kmh SE 13.9 mph22.4 kmh 30.17 in1021.7 mb 0.00 in0.0 mm 0.00 in/hr0.0 mm/hr 0.00 in0.0 mm
10:10 AM 67.9°F19.9°C 56.1°F13.4°C 66% 9.3 mph SE15.0 kmh SE 11.8 mph19.0 kmh 30.17 in1021.7 mb 0.00 in0.0 mm 0.00 in/hr0.0 mm/hr 0.00 in0.0 mm
10:00 AM 67.6°F19.8°C 55.8°F13.2°C 66% 12.0 mph S19.3 kmh S 15.0 mph24.1 kmh 30.17 in1021.7 mb 0.00 in0.0 mm 0.00 in/hr0.0 mm/hr 0.00 in0.0 mm
09:50 AM 67.1°F19.5°C 55.3°F12.9°C 66% 9.7 mph S15.6 kmh S 12.8 mph20.6 kmh 30.18 in1022.0 mb 0.00 in0.0 mm 0.00 in/hr0.0 mm/hr 0.00 in0.0 mm
09:40 AM 66.4°F19.1°C 55.1°F12.8°C 67% 8.8 mph SSE14.2 kmh SSE 11.8 mph19.0 kmh 30.18 in1022.0 mb 0.00 in0.0 mm 0.00 in/hr0.0 mm/hr 0.00 in0.0 mm
09:30 AM 65.5°F18.6°C 55.0°F12.8°C 69% 9.4 mph SSE15.1 kmh SSE 10.7 mph17.2 kmh 30.18 in1022.0 mb 0.00 in0.0 mm 0.00 in/hr0.0 mm/hr 0.00 in0.0 mm
09:20 AM 64.6°F18.1°C 54.2°F12.3°C 69% 8.2 mph S13.2 kmh S 12.8 mph20.6 kmh 30.17 in1021.7 mb 0.00 in0.0 mm 0.00 in/hr0.0 mm/hr 0.00 in0.0 mm
09:10 AM 63.8°F17.7°C 54.3°F12.4°C 71% 8.8 mph SE14.2 kmh SE 10.7 mph17.2 kmh 30.17 in1021.7 mb 0.00 in0.0 mm 0.00 in/hr0.0 mm/hr 0.00 in0.0 mm
09:00 AM 62.5°F16.9°C 54.1°F12.3°C 74% 9.8 mph SE15.8 kmh SE 11.8 mph19.0 kmh 30.17 in1021.7 mb 0.00 in0.0 mm 0.00 in/hr0.0 mm/hr 0.00 in0.0 mm
08:50 AM 60.3°F15.7°C 54.1°F12.3°C 80% 6.3 mph SSE10.1 kmh SSE 9.6 mph15.4 kmh 30.17 in1021.7 mb 0.00 in0.0 mm 0.00 in/hr0.0 mm/hr 0.00 in0.0 mm
08:40 AM 57.6°F14.2°C 53.8°F12.1°C 87% 1.8 mph SE2.9 kmh SE 6.4 mph10.3 kmh 30.18 in1022.0 mb 0.00 in0.0 mm 0.00 in/hr0.0 mm/hr 0.00 in0.0 mm
08:30 AM 55.8°F13.2°C 52.9°F11.6°C 90% 1.2 mph SE1.9 kmh SE 3.2 mph5.1 kmh 30.17 in1021.7 mb 0.00 in0.0 mm 0.00 in/hr0.0 mm/hr 0.00 in0.0 mm
08:20 AM 54.6°F12.6°C 52.3°F11.3°C 92% Calm Calm -- 30.17 in1021.7 mb 0.00 in0.0 mm 0.00 in/hr0.0 mm/hr 0.00 in0.0 mm
08:10 AM 53.6°F12.0°C 51.3°F10.7°C 92% Calm Calm -- 30.17 in1021.7 mb 0.00 in0.0 mm 0.00 in/hr0.0 mm/hr 0.00 in0.0 mm
08:00 AM 52.8°F11.6°C 50.8°F10.4°C 93% Calm Calm -- 30.16 in1021.3 mb 0.00 in0.0 mm 0.00 in/hr0.0 mm/hr 0.00 in0.0 mm
07:50 AM 51.8°F11.0°C 49.8°F9.9°C 93% Calm Calm -- 30.16 in1021.3 mb 0.00 in0.0 mm 0.00 in/hr0.0 mm/hr 0.00 in0.0 mm
07:40 AM 50.3°F10.2°C 48.3°F9.1°C 93% Calm Calm -- 30.16 in1021.3 mb 0.00 in0.0 mm 0.00 in/hr0.0 mm/hr 0.00 in0.0 mm
07:30 AM 48.8°F9.3°C 46.9°F8.3°C 93% Calm Calm -- 30.16 in1021.3 mb 0.00 in0.0 mm 0.00 in/hr0.0 mm/hr 0.00 in0.0 mm
07:20 AM 48.0°F8.9°C 45.8°F7.7°C 92% Calm Calm -- 30.16 in1021.3 mb 0.00 in0.0 mm 0.00 in/hr0.0 mm/hr 0.00 in0.0 mm
07:10 AM 47.8°F8.8°C 45.3°F7.4°C 91% Calm Calm -- 30.15 in1021.0 mb 0.00 in0.0 mm 0.00 in/hr0.0 mm/hr 0.00 in0.0 mm
07:00 AM 48.3°F9.1°C 45.8°F7.7°C 91% Calm Calm -- 30.14 in1020.7 mb 0.00 in0.0 mm 0.00 in/hr0.0 mm/hr 0.00 in0.0 mm
06:50 AM 48.7°F9.3°C 46.2°F7.9°C 91% Calm Calm -- 30.14 in1020.7 mb 0.00 in0.0 mm 0.00 in/hr0.0 mm/hr 0.00 in0.0 mm
06:40 AM 48.8°F9.3°C 46.3°F7.9°C 91% Calm Calm -- 30.14 in1020.7 mb 0.00 in0.0 mm 0.00 in/hr0.0 mm/hr 0.00 in0.0 mm
06:30 AM 48.7°F9.3°C 45.9°F7.7°C 90% Calm Calm -- 30.14 in1020.7 mb 0.00 in0.0 mm 0.00 in/hr0.0 mm/hr 0.00 in0.0 mm
06:20 AM 49.0°F9.4°C 46.2°F7.9°C 90% Calm Calm -- 30.14 in1020.7 mb 0.00 in0.0 mm 0.00 in/hr0.0 mm/hr 0.00 in0.0 mm
06:10 AM 49.2°F9.6°C 46.4°F8.0°C 90% Calm Calm -- 30.13 in1020.3 mb 0.00 in0.0 mm 0.00 in/hr0.0 mm/hr 0.00 in0.0 mm
06:00 AM 49.8°F9.9°C 47.0°F8.3°C 90% Calm Calm -- 30.13 in1020.3 mb 0.00 in0.0 mm 0.00 in/hr0.0 mm/hr 0.00 in0.0 mm
05:50 AM 49.9°F9.9°C 46.8°F8.2°C 89% Calm Calm -- 30.12 in1020.0 mb 0.00 in0.0 mm 0.00 in/hr0.0 mm/hr 0.00 in0.0 mm
05:40 AM 50.3°F10.2°C 47.5°F8.6°C 90% Calm Calm -- 30.12 in1020.0 mb 0.00 in0.0 mm 0.00 in/hr0.0 mm/hr 0.00 in0.0 mm
05:30 AM 50.3°F10.2°C 47.2°F8.4°C 89% Calm Calm -- 30.12 in1020.0 mb 0.00 in0.0 mm 0.00 in/hr0.0 mm/hr 0.00 in0.0 mm
05:20 AM 50.6°F10.3°C 47.5°F8.6°C 89% Calm Calm -- 30.12 in1020.0 mb 0.00 in0.0 mm 0.00 in/hr0.0 mm/hr 0.00 in0.0 mm
05:10 AM 50.5°F10.3°C 47.7°F8.7°C 90% Calm Calm -- 30.12 in1020.0 mb 0.00 in0.0 mm 0.00 in/hr0.0 mm/hr 0.00 in0.0 mm
05:00 AM 50.1°F10.1°C 47.0°F8.3°C 89% Calm Calm -- 30.12 in1020.0 mb 0.00 in0.0 mm 0.00 in/hr0.0 mm/hr 0.00 in0.0 mm
04:50 AM 50.4°F10.2°C 47.3°F8.5°C 89% Calm Calm -- 30.11 in1019.6 mb 0.00 in0.0 mm 0.00 in/hr0.0 mm/hr 0.00 in0.0 mm
04:30 AM 51.0°F10.6°C 47.6°F8.7°C 88% Calm Calm -- 30.11 in1019.6 mb 0.00 in0.0 mm 0.00 in/hr0.0 mm/hr 0.00 in0.0 mm
04:20 AM 51.1°F10.6°C 47.7°F8.7°C 88% Calm Calm -- 30.11 in1019.6 mb 0.00 in0.0 mm 0.00 in/hr0.0 mm/hr 0.00 in0.0 mm
04:10 AM 51.4°F10.8°C 48.0°F8.9°C 88% Calm Calm -- 30.11 in1019.6 mb 0.00 in0.0 mm 0.00 in/hr0.0 mm/hr 0.00 in0.0 mm
04:00 AM 51.3°F10.7°C 47.9°F8.8°C 88% Calm Calm -- 30.11 in1019.6 mb 0.00 in0.0 mm 0.00 in/hr0.0 mm/hr 0.00 in0.0 mm
03:50 AM 51.2°F10.7°C 47.8°F8.8°C 88% Calm Calm -- 30.11 in1019.6 mb 0.00 in0.0 mm 0.00 in/hr0.0 mm/hr 0.00 in0.0 mm
03:40 AM 51.2°F10.7°C 47.8°F8.8°C 88% Calm Calm -- 30.11 in1019.6 mb 0.00 in0.0 mm 0.00 in/hr0.0 mm/hr 0.00 in0.0 mm
03:30 AM 51.1°F10.6°C 47.4°F8.6°C 87% 3.5 mph SE5.6 kmh SE 4.3 mph6.9 kmh 30.11 in1019.6 mb 0.00 in0.0 mm 0.00 in/hr0.0 mm/hr 0.00 in0.0 mm
03:20 AM 51.2°F10.7°C 47.2°F8.4°C 86% 3.1 mph SE5.0 kmh SE 4.3 mph6.9 kmh 30.12 in1020.0 mb 0.00 in0.0 mm 0.00 in/hr0.0 mm/hr 0.00 in0.0 mm
03:10 AM 51.6°F10.9°C 47.6°F8.7°C 86% Calm Calm -- 30.12 in1020.0 mb 0.00 in0.0 mm 0.00 in/hr0.0 mm/hr 0.00 in0.0 mm
03:00 AM 52.1°F11.2°C 47.8°F8.8°C 85% Calm Calm -- 30.13 in1020.3 mb 0.00 in0.0 mm 0.00 in/hr0.0 mm/hr 0.00 in0.0 mm
02:50 AM 52.4°F11.3°C 48.0°F8.9°C 85% Calm Calm -- 30.13 in1020.3 mb 0.00 in0.0 mm 0.00 in/hr0.0 mm/hr 0.00 in0.0 mm
02:40 AM 52.7°F11.5°C 47.7°F8.7°C 83% Calm Calm -- 30.14 in1020.7 mb 0.00 in0.0 mm 0.00 in/hr0.0 mm/hr 0.00 in0.0 mm
02:30 AM 53.2°F11.8°C 47.8°F8.8°C 82% Calm Calm -- 30.14 in1020.7 mb 0.00 in0.0 mm 0.00 in/hr0.0 mm/hr 0.00 in0.0 mm
02:20 AM 54.2°F12.3°C 47.8°F8.8°C 79% Calm Calm -- 30.14 in1020.7 mb 0.00 in0.0 mm 0.00 in/hr0.0 mm/hr 0.00 in0.0 mm
02:10 AM 55.5°F13.1°C 48.8°F9.3°C 78% Calm Calm -- 30.14 in1020.7 mb 0.00 in0.0 mm 0.00 in/hr0.0 mm/hr 0.00 in0.0 mm
02:00 AM 56.6°F13.7°C 49.1°F9.5°C 76% Calm Calm -- 30.14 in1020.7 mb 0.00 in0.0 mm 0.00 in/hr0.0 mm/hr 0.00 in0.0 mm
01:50 AM 57.6°F14.2°C 49.4°F9.7°C 74% Calm Calm -- 30.14 in1020.7 mb 0.00 in0.0 mm 0.00 in/hr0.0 mm/hr 0.00 in0.0 mm
01:40 AM 58.8°F14.9°C 49.7°F9.8°C 72% Calm Calm -- 30.14 in1020.7 mb 0.00 in0.0 mm 0.00 in/hr0.0 mm/hr 0.00 in0.0 mm
01:30 AM 60.0°F15.6°C 49.8°F9.9°C 69% Calm Calm -- 30.14 in1020.7 mb 0.00 in0.0 mm 0.00 in/hr0.0 mm/hr 0.00 in0.0 mm
01:20 AM 60.8°F16.0°C 49.8°F9.9°C 67% 0.8 mph SE1.3 kmh SE -- 30.14 in1020.7 mb 0.00 in0.0 mm 0.00 in/hr0.0 mm/hr 0.00 in0.0 mm
01:10 AM 61.2°F16.2°C 50.2°F10.1°C 67% 1.9 mph SE3.1 kmh SE 3.2 mph5.1 kmh 30.13 in1020.3 mb 0.00 in0.0 mm 0.00 in/hr0.0 mm/hr 0.00 in0.0 mm
01:00 AM 61.5°F16.4°C 50.0°F10.0°C 66% 4.1 mph SE6.6 kmh SE 5.3 mph8.5 kmh 30.13 in1020.3 mb 0.00 in0.0 mm 0.00 in/hr0.0 mm/hr 0.00 in0.0 mm
12:50 AM 61.9°F16.6°C 50.0°F10.0°C 65% 4.1 mph SE6.6 kmh SE 6.4 mph10.3 kmh 30.13 in1020.3 mb 0.00 in0.0 mm 0.00 in/hr0.0 mm/hr 0.00 in0.0 mm
12:40 AM 62.1°F16.7°C 50.2°F10.1°C 65% 3.9 mph SE6.3 kmh SE 6.4 mph10.3 kmh 30.13 in1020.3 mb 0.00 in0.0 mm 0.00 in/hr0.0 mm/hr 0.00 in0.0 mm
12:30 AM 62.2°F16.8°C 49.9°F9.9°C 64% 4.5 mph ESE7.2 kmh ESE 5.3 mph8.5 kmh 30.12 in1020.0 mb 0.00 in0.0 mm 0.00 in/hr0.0 mm/hr 0.00 in0.0 mm
12:20 AM 62.2°F16.8°C 49.9°F9.9°C 64% 2.0 mph ESE3.2 kmh ESE 3.2 mph5.1 kmh 30.12 in1020.0 mb 0.00 in0.0 mm 0.00 in/hr0.0 mm/hr 0.00 in0.0 mm
12:10 AM 62.7°F17.1°C 49.9°F9.9°C 63% 2.5 mph ESE4.0 kmh ESE 3.2 mph5.1 kmh 30.12 in1020.0 mb 0.00 in0.0 mm 0.00 in/hr0.0 mm/hr 0.00 in0.0 mm
12:00 AM 63.2°F17.3°C 50.4°F10.2°C 63% 3.3 mph ESE5.3 kmh ESE 6.4 mph10.3 kmh 30.12 in1020.0 mb 0.00 in0.0 mm 0.00 in/hr0.0 mm/hr 0.00 in0.0 mm